createdAt,value
2022-08-03T00:00:11.799Z,0.00
2022-08-03T00:01:11.796Z,0.00
2022-08-03T00:02:11.793Z,0.00
2022-08-03T00:03:11.809Z,0.00
2022-08-03T00:04:11.771Z,0.00
2022-08-03T00:05:11.754Z,0.00
2022-08-03T00:06:11.748Z,0.00
2022-08-03T00:07:11.774Z,0.00
2022-08-03T00:08:11.736Z,0.00
2022-08-03T00:09:11.738Z,0.00
2022-08-03T00:10:11.726Z,0.00
2022-08-03T00:11:11.716Z,0.00
2022-08-03T00:12:11.701Z,0.00
2022-08-03T00:13:11.719Z,0.00
2022-08-03T00:14:11.691Z,0.00
2022-08-03T00:15:16.491Z,0.00
2022-08-03T00:16:12.679Z,0.00
2022-08-03T00:17:11.674Z,0.00
2022-08-03T00:18:11.665Z,0.00
2022-08-03T00:19:11.678Z,0.00
2022-08-03T00:20:11.663Z,0.00
2022-08-03T00:21:11.646Z,0.00
2022-08-03T00:22:11.632Z,0.00
2022-08-03T00:23:11.630Z,0.00
2022-08-03T00:24:11.621Z,0.00
2022-08-03T00:25:11.632Z,0.00
2022-08-03T00:26:11.610Z,0.00
2022-08-03T00:27:11.612Z,0.00
2022-08-03T00:28:12.597Z,0.00
2022-08-03T00:29:11.607Z,0.00
2022-08-03T00:30:11.614Z,0.00
2022-08-03T00:31:13.445Z,0.00
2022-08-03T00:32:11.615Z,0.00
2022-08-03T00:33:11.556Z,0.00
2022-08-03T00:34:11.565Z,0.00
2022-08-03T00:35:18.275Z,0.00
2022-08-03T00:36:12.538Z,0.00
2022-08-03T00:37:11.534Z,0.00
2022-08-03T00:38:11.542Z,0.00
2022-08-03T00:39:11.515Z,0.00
2022-08-03T00:40:11.505Z,0.00
2022-08-03T00:41:11.494Z,0.00
2022-08-03T00:42:11.492Z,0.00
2022-08-03T00:43:11.488Z,0.00
2022-08-03T00:44:11.496Z,0.00
2022-08-03T00:45:11.473Z,0.00
2022-08-03T00:46:11.477Z,0.00
2022-08-03T00:47:11.459Z,0.00
2022-08-03T00:48:32.185Z,0.00
2022-08-03T00:49:12.509Z,0.00
2022-08-03T00:50:11.425Z,0.00
2022-08-03T00:51:11.422Z,0.00
2022-08-03T00:52:11.421Z,0.00
2022-08-03T00:53:11.445Z,0.00
2022-08-03T00:54:11.403Z,0.00
2022-08-03T00:55:11.394Z,0.00
2022-08-03T00:56:11.423Z,0.00
2022-08-03T00:57:11.391Z,0.00
2022-08-03T00:58:11.378Z,0.00
2022-08-03T00:59:11.390Z,0.00
2022-08-03T01:00:11.360Z,0.00
2022-08-03T01:01:11.439Z,0.00
2022-08-03T01:02:11.343Z,0.00
2022-08-03T01:03:11.347Z,0.00
2022-08-03T01:04:11.358Z,0.00
2022-08-03T01:05:11.327Z,0.00
2022-08-03T01:06:11.310Z,0.00
2022-08-03T01:07:11.328Z,0.00
2022-08-03T01:08:11.299Z,0.00
2022-08-03T01:09:11.297Z,0.00
2022-08-03T01:10:11.311Z,0.00
2022-08-03T01:11:11.289Z,0.00
2022-08-03T01:12:11.271Z,0.00
2022-08-03T01:14:00.961Z,0.00
2022-08-03T01:14:18.745Z,0.00
2022-08-03T01:15:12.276Z,0.00
2022-08-03T01:16:11.268Z,0.00
2022-08-03T01:17:11.262Z,0.00
2022-08-03T01:18:11.238Z,0.00
2022-08-03T01:19:11.229Z,0.00
2022-08-03T01:20:11.218Z,0.00
2022-08-03T01:21:11.226Z,0.00
2022-08-03T01:22:11.206Z,0.00
2022-08-03T01:23:11.196Z,0.00
2022-08-03T01:24:11.186Z,0.00
2022-08-03T01:25:11.185Z,0.00
2022-08-03T01:26:11.187Z,0.00
2022-08-03T01:27:11.193Z,0.00
2022-08-03T01:28:11.385Z,0.00
2022-08-03T01:29:11.154Z,0.00
2022-08-03T01:30:11.165Z,0.00
2022-08-03T01:31:11.161Z,0.00
2022-08-03T01:32:59.859Z,0.00
2022-08-03T01:33:12.121Z,0.00
2022-08-03T01:34:12.219Z,0.00
2022-08-03T01:35:11.110Z,0.00
2022-08-03T01:36:11.127Z,0.00
2022-08-03T01:37:11.098Z,0.00
2022-08-03T01:38:11.089Z,0.00
2022-08-03T01:39:11.084Z,0.00
2022-08-03T01:40:11.075Z,0.00
2022-08-03T01:41:11.096Z,0.00
2022-08-03T01:42:11.072Z,0.00
2022-08-03T01:43:11.049Z,0.00
2022-08-03T01:44:29.713Z,0.00
2022-08-03T01:45:12.050Z,0.00
2022-08-03T01:46:11.021Z,0.00
2022-08-03T01:47:11.042Z,0.00
2022-08-03T01:48:11.018Z,0.00
2022-08-03T01:49:11.055Z,0.00
2022-08-03T01:50:11.008Z,0.00
2022-08-03T01:51:10.993Z,0.00
2022-08-03T01:52:11.011Z,0.00
2022-08-03T01:53:10.985Z,0.00
2022-08-03T01:54:10.999Z,0.00
2022-08-03T01:55:10.976Z,0.00
2022-08-03T01:56:10.966Z,0.00
2022-08-03T01:57:10.983Z,0.00
2022-08-03T01:58:10.948Z,0.00
2022-08-03T01:59:10.963Z,0.00
2022-08-03T02:00:10.968Z,0.00
2022-08-03T02:01:10.995Z,0.00
2022-08-03T02:02:31.937Z,0.00
2022-08-03T02:03:11.923Z,0.00
2022-08-03T02:04:10.907Z,0.00
2022-08-03T02:05:11.381Z,0.00
2022-08-03T02:07:00.215Z,0.00
2022-08-03T02:07:11.893Z,0.00
2022-08-03T02:08:10.887Z,0.00
2022-08-03T02:09:10.886Z,0.00
2022-08-03T02:10:10.886Z,0.00
2022-08-03T02:11:10.867Z,0.00
2022-08-03T02:12:10.858Z,0.00
2022-08-03T02:13:10.845Z,0.00
2022-08-03T02:14:10.834Z,0.00
2022-08-03T02:15:10.852Z,0.00
2022-08-03T02:16:10.814Z,0.00
2022-08-03T02:17:10.819Z,0.00
2022-08-03T02:18:10.818Z,0.00
2022-08-03T02:19:10.801Z,0.00
2022-08-03T02:20:10.794Z,0.00
2022-08-03T02:21:11.151Z,0.00
2022-08-03T02:22:10.807Z,0.00
2022-08-03T02:23:10.783Z,0.00
2022-08-03T02:24:10.775Z,0.00
2022-08-03T02:25:10.768Z,0.00
2022-08-03T02:26:10.776Z,0.00
2022-08-03T02:27:10.775Z,0.00
2022-08-03T02:28:10.739Z,0.00
2022-08-03T02:29:10.733Z,0.00
2022-08-03T02:30:10.726Z,0.00
2022-08-03T02:31:10.742Z,0.00
2022-08-03T02:32:10.718Z,0.00
2022-08-03T02:33:10.713Z,0.00
2022-08-03T02:34:10.713Z,0.00
2022-08-03T02:35:10.690Z,0.00
2022-08-03T02:36:10.689Z,0.00
2022-08-03T02:37:10.707Z,0.00
2022-08-03T02:38:10.674Z,0.00
2022-08-03T02:39:10.690Z,0.00
2022-08-03T02:40:10.676Z,0.00
2022-08-03T02:41:10.680Z,0.00
2022-08-03T02:42:12.036Z,0.00
2022-08-03T02:43:10.634Z,0.00
2022-08-03T02:44:10.630Z,0.00
2022-08-03T02:45:10.704Z,0.00
2022-08-03T02:46:10.619Z,0.00
2022-08-03T02:47:10.638Z,0.00
2022-08-03T02:48:10.618Z,0.00
2022-08-03T02:49:40.729Z,0.00
2022-08-03T02:50:11.670Z,0.00
2022-08-03T02:51:10.580Z,0.00
2022-08-03T02:52:12.574Z,0.00
2022-08-03T02:53:10.582Z,0.00
2022-08-03T02:54:10.564Z,0.00
2022-08-03T02:55:10.550Z,0.00
2022-08-03T02:56:10.538Z,0.00
2022-08-03T02:57:10.529Z,0.00
2022-08-03T02:58:10.549Z,0.00
2022-08-03T02:59:10.543Z,0.00
2022-08-03T03:00:10.513Z,0.00
2022-08-03T03:01:10.583Z,0.00
2022-08-03T03:02:10.530Z,0.00
2022-08-03T03:03:10.510Z,0.00
2022-08-03T03:04:10.488Z,0.00
2022-08-03T03:05:55.137Z,0.00
2022-08-03T03:06:11.471Z,0.00
2022-08-03T03:07:10.471Z,0.00
2022-08-03T03:08:17.634Z,0.00
2022-08-03T03:09:10.457Z,0.00
2022-08-03T03:10:10.436Z,0.00
2022-08-03T03:11:10.472Z,0.00
2022-08-03T03:12:10.434Z,0.00
2022-08-03T03:13:10.420Z,0.00
2022-08-03T03:14:10.416Z,0.00
2022-08-03T03:15:10.411Z,0.00
2022-08-03T03:16:10.395Z,0.00
2022-08-03T03:17:10.413Z,0.00
2022-08-03T03:18:10.381Z,0.00
2022-08-03T03:19:10.383Z,0.00
2022-08-03T03:20:10.370Z,0.00
2022-08-03T03:21:10.366Z,0.00
2022-08-03T03:22:10.416Z,0.00
2022-08-03T03:23:10.353Z,0.00
2022-08-03T03:24:10.341Z,0.00
2022-08-03T03:25:10.345Z,0.00
2022-08-03T03:26:10.328Z,0.00
2022-08-03T03:27:10.329Z,0.00
2022-08-03T03:28:10.338Z,0.00
2022-08-03T03:29:10.303Z,0.00
2022-08-03T03:30:10.293Z,0.00
2022-08-03T03:31:10.297Z,0.00
2022-08-03T03:32:10.302Z,0.00
2022-08-03T03:33:10.283Z,0.00
2022-08-03T03:34:10.288Z,0.00
2022-08-03T03:35:10.258Z,0.00
2022-08-03T03:36:10.255Z,0.00
2022-08-03T03:37:10.252Z,0.00
2022-08-03T03:38:10.248Z,0.00
2022-08-03T03:39:15.150Z,0.00
2022-08-03T03:40:11.223Z,0.00
2022-08-03T03:41:10.226Z,0.00
2022-08-03T03:42:10.224Z,0.00
2022-08-03T03:43:10.209Z,0.00
2022-08-03T03:44:10.202Z,0.00
2022-08-03T03:45:10.211Z,0.00
2022-08-03T03:46:10.191Z,0.00
2022-08-03T03:47:10.177Z,0.00
2022-08-03T03:48:10.174Z,0.00
2022-08-03T03:49:10.246Z,0.00
2022-08-03T03:50:10.149Z,0.00
2022-08-03T03:51:10.142Z,0.00
2022-08-03T03:52:10.143Z,0.00
2022-08-03T03:53:10.132Z,5.62
2022-08-03T03:54:10.122Z,5.62
2022-08-03T03:55:10.126Z,5.62
2022-08-03T03:56:10.098Z,5.62
2022-08-03T03:57:10.095Z,5.62
2022-08-03T03:58:10.093Z,5.62
2022-08-03T03:59:10.100Z,5.62
2022-08-03T04:00:10.079Z,5.62
2022-08-03T04:01:10.124Z,5.62
2022-08-03T04:02:10.120Z,5.62
2022-08-03T04:03:10.057Z,5.62
2022-08-03T04:04:10.058Z,11.25
2022-08-03T04:05:10.038Z,11.25
2022-08-03T04:06:10.037Z,11.25
2022-08-03T04:07:10.031Z,11.25
2022-08-03T04:08:10.037Z,11.25
2022-08-03T04:09:10.005Z,11.25
2022-08-03T04:10:14.703Z,11.25
2022-08-03T04:11:09.984Z,11.25
2022-08-03T04:12:10.068Z,11.25
2022-08-03T04:13:09.964Z,16.88
2022-08-03T04:14:09.995Z,16.88
2022-08-03T04:15:09.953Z,16.88
2022-08-03T04:16:09.948Z,16.88
2022-08-03T04:17:09.958Z,16.88
2022-08-03T04:18:09.941Z,16.88
2022-08-03T04:19:09.931Z,16.88
2022-08-03T04:20:09.919Z,22.50
2022-08-03T04:21:09.908Z,22.50
2022-08-03T04:22:09.972Z,22.50
2022-08-03T04:23:15.725Z,22.50
2022-08-03T04:24:10.879Z,22.50
2022-08-03T04:25:09.886Z,22.50
2022-08-03T04:26:09.902Z,22.50
2022-08-03T04:27:09.861Z,28.12
2022-08-03T04:28:29.777Z,28.12
2022-08-03T04:29:10.847Z,28.12
2022-08-03T04:30:09.835Z,28.12
2022-08-03T04:31:09.842Z,28.12
2022-08-03T04:32:09.907Z,28.12
2022-08-03T04:33:09.818Z,28.12
2022-08-03T04:34:09.834Z,33.75
2022-08-03T04:35:09.829Z,33.75
2022-08-03T04:36:09.792Z,45.00
2022-08-03T04:37:09.789Z,73.12
2022-08-03T04:38:09.779Z,95.62
2022-08-03T04:39:09.771Z,95.62
2022-08-03T04:40:09.756Z,129.38
2022-08-03T04:41:09.775Z,180.00
2022-08-03T04:42:09.751Z,225.00
2022-08-03T04:43:09.750Z,247.50
2022-08-03T04:44:09.735Z,258.75
2022-08-03T04:45:09.727Z,270.00
2022-08-03T04:46:09.715Z,275.62
2022-08-03T04:47:09.739Z,281.25
2022-08-03T04:48:09.703Z,286.88
2022-08-03T04:49:09.723Z,292.50
2022-08-03T04:50:12.917Z,298.12
2022-08-03T04:51:09.683Z,303.75
2022-08-03T04:52:09.739Z,309.38
2022-08-03T04:53:09.683Z,315.00
2022-08-03T04:54:09.661Z,315.00
2022-08-03T04:55:09.654Z,320.62
2022-08-03T04:56:09.644Z,326.25
2022-08-03T04:57:09.756Z,331.88
2022-08-03T04:58:09.627Z,337.50
2022-08-03T04:59:09.645Z,343.12
2022-08-03T05:00:09.622Z,343.12
2022-08-03T05:01:09.607Z,348.75
2022-08-03T05:02:09.779Z,354.38
2022-08-03T05:03:20.347Z,371.25
2022-08-03T05:04:10.609Z,455.62
2022-08-03T05:05:09.584Z,596.25
2022-08-03T05:06:11.400Z,731.25
2022-08-03T05:07:12.303Z,810.00
2022-08-03T05:08:11.185Z,804.38
2022-08-03T05:09:09.584Z,731.25
2022-08-03T05:10:15.911Z,753.75
2022-08-03T05:11:10.547Z,765.00
2022-08-03T05:12:09.593Z,866.25
2022-08-03T05:13:09.533Z,1001.25
2022-08-03T05:14:09.521Z,911.25
2022-08-03T05:15:09.534Z,798.75
2022-08-03T05:16:09.511Z,821.25
2022-08-03T05:17:09.509Z,810.00
2022-08-03T05:18:13.666Z,860.62
2022-08-03T05:19:09.505Z,860.62
2022-08-03T05:20:09.487Z,855.00
2022-08-03T05:21:09.493Z,843.75
2022-08-03T05:22:09.540Z,815.62
2022-08-03T05:23:09.466Z,860.62
2022-08-03T05:24:09.452Z,950.62
2022-08-03T05:25:09.458Z,973.12
2022-08-03T05:26:10.501Z,973.12
2022-08-03T05:27:09.454Z,855.00
2022-08-03T05:28:09.431Z,798.75
2022-08-03T05:29:09.429Z,849.38
2022-08-03T05:30:30.885Z,877.50
2022-08-03T05:31:10.433Z,860.62
2022-08-03T05:32:09.447Z,933.75
2022-08-03T05:33:09.401Z,939.38
2022-08-03T05:34:09.395Z,978.75
2022-08-03T05:36:00.849Z,1057.50
2022-08-03T05:36:10.380Z,961.88
2022-08-03T05:37:09.396Z,922.50
2022-08-03T05:38:09.370Z,928.12
2022-08-03T05:39:09.363Z,978.75
2022-08-03T05:40:09.346Z,1029.38
2022-08-03T05:41:22.442Z,1006.88
2022-08-03T05:42:09.393Z,978.75
2022-08-03T05:43:09.348Z,1096.88
2022-08-03T05:44:09.356Z,1068.75
2022-08-03T05:45:09.320Z,1006.88
2022-08-03T05:46:13.049Z,1125.00
2022-08-03T05:47:09.305Z,1108.12
2022-08-03T05:48:09.300Z,1141.88
2022-08-03T05:49:09.363Z,1141.88
2022-08-03T05:50:09.283Z,1080.00
2022-08-03T05:51:09.283Z,1136.25
2022-08-03T05:52:12.947Z,967.50
2022-08-03T05:53:10.265Z,1035.00
2022-08-03T05:54:09.257Z,1091.25
2022-08-03T05:55:09.253Z,1035.00
2022-08-03T05:56:13.601Z,1158.75
2022-08-03T05:57:10.265Z,1231.88
2022-08-03T05:58:09.240Z,1181.25
2022-08-03T05:59:35.898Z,1074.38
2022-08-03T06:00:10.222Z,1119.38
2022-08-03T06:01:09.238Z,1243.12
2022-08-03T06:02:09.257Z,1147.50
2022-08-03T06:03:09.204Z,1209.38
2022-08-03T06:04:09.189Z,1316.25
2022-08-03T06:05:09.185Z,1085.62
2022-08-03T06:06:09.195Z,1063.12
2022-08-03T06:07:09.192Z,1063.12
2022-08-03T06:08:09.184Z,1153.12
2022-08-03T06:09:09.154Z,1260.00
2022-08-03T06:10:35.257Z,1220.62
2022-08-03T06:11:10.143Z,1125.00
2022-08-03T06:12:12.397Z,1192.50
2022-08-03T06:13:10.190Z,1265.62
2022-08-03T06:14:09.119Z,1237.50
2022-08-03T06:15:11.318Z,1226.25
2022-08-03T06:16:09.115Z,1293.75
2022-08-03T06:17:09.109Z,1440.00
2022-08-03T06:18:09.089Z,1271.25
2022-08-03T06:19:09.103Z,1209.38
2022-08-03T06:20:09.077Z,1136.25
2022-08-03T06:21:14.316Z,888.75
2022-08-03T06:22:09.064Z,945.00
2022-08-03T06:23:15.937Z,1035.00
2022-08-03T06:24:10.082Z,1051.88
2022-08-03T06:25:12.671Z,1293.75
2022-08-03T06:26:09.038Z,1333.12
2022-08-03T06:27:09.039Z,1035.00
2022-08-03T06:28:15.024Z,860.62
2022-08-03T06:29:10.054Z,742.50
2022-08-03T06:30:09.044Z,545.62
2022-08-03T06:31:09.005Z,298.12
2022-08-03T06:32:09.005Z,264.38
2022-08-03T06:33:09.010Z,258.75
2022-08-03T06:34:33.790Z,253.12
2022-08-03T06:35:10.016Z,247.50
2022-08-03T06:36:08.974Z,247.50
2022-08-03T06:37:08.978Z,241.88
2022-08-03T06:38:08.964Z,241.88
2022-08-03T06:39:08.962Z,241.88
2022-08-03T06:40:08.948Z,241.88
2022-08-03T06:41:08.972Z,236.25
2022-08-03T06:42:09.856Z,236.25
2022-08-03T06:43:12.553Z,236.25
2022-08-03T06:44:08.929Z,236.25
2022-08-03T06:45:08.917Z,236.25
2022-08-03T06:46:08.920Z,236.25
2022-08-03T06:47:08.926Z,236.25
2022-08-03T06:48:08.910Z,168.75
2022-08-03T06:49:08.956Z,163.12
2022-08-03T06:50:16.539Z,202.50
2022-08-03T06:51:09.890Z,191.25
2022-08-03T06:52:08.876Z,202.50
2022-08-03T06:53:08.863Z,202.50
2022-08-03T06:54:08.880Z,219.38
2022-08-03T06:55:08.867Z,213.75
2022-08-03T06:56:08.852Z,208.12
2022-08-03T06:57:08.847Z,208.12
2022-08-03T06:58:08.837Z,208.12
2022-08-03T06:59:08.826Z,208.12
2022-08-03T07:00:12.307Z,208.12
2022-08-03T07:01:08.855Z,219.38
2022-08-03T07:02:08.819Z,230.62
2022-08-03T07:03:08.820Z,225.00
2022-08-03T07:04:08.808Z,225.00
2022-08-03T07:05:08.810Z,225.00
2022-08-03T07:06:08.778Z,225.00
2022-08-03T07:07:08.790Z,219.38
2022-08-03T07:08:08.781Z,219.38
2022-08-03T07:09:08.767Z,219.38
2022-08-03T07:10:08.778Z,219.38
2022-08-03T07:11:08.762Z,219.38
2022-08-03T07:12:08.753Z,219.38
2022-08-03T07:13:08.752Z,219.38
2022-08-03T07:14:08.752Z,219.38
2022-08-03T07:15:08.774Z,219.38
2022-08-03T07:16:13.905Z,202.50
2022-08-03T07:17:11.689Z,213.75
2022-08-03T07:18:08.713Z,213.75
2022-08-03T07:19:08.708Z,213.75
2022-08-03T07:20:08.710Z,208.12
2022-08-03T07:21:08.773Z,213.75
2022-08-03T07:22:08.683Z,213.75
2022-08-03T07:23:08.692Z,213.75
2022-08-03T07:24:08.678Z,213.75
2022-08-03T07:25:08.656Z,219.38
2022-08-03T07:26:08.658Z,213.75
2022-08-03T07:27:08.675Z,213.75
2022-08-03T07:28:08.644Z,213.75
2022-08-03T07:29:14.875Z,213.75
2022-08-03T07:30:08.627Z,208.12
2022-08-03T07:31:08.617Z,213.75
2022-08-03T07:32:08.631Z,213.75
2022-08-03T07:33:08.625Z,213.75
2022-08-03T07:34:08.599Z,213.75
2022-08-03T07:35:08.768Z,213.75
2022-08-03T07:36:08.574Z,208.12
2022-08-03T07:37:08.622Z,208.12
2022-08-03T07:38:08.574Z,208.12
2022-08-03T07:39:17.566Z,208.12
2022-08-03T07:40:09.556Z,208.12
2022-08-03T07:41:08.550Z,208.12
2022-08-03T07:42:08.580Z,202.50
2022-08-03T07:43:08.563Z,202.50
2022-08-03T07:44:08.536Z,202.50
2022-08-03T07:45:08.519Z,202.50
2022-08-03T07:46:08.533Z,208.12
2022-08-03T07:47:09.147Z,208.12
2022-08-03T07:48:12.104Z,208.12
2022-08-03T07:49:08.563Z,208.12
2022-08-03T07:50:08.878Z,208.12
2022-08-03T07:51:08.499Z,208.12
2022-08-03T07:52:08.468Z,208.12
2022-08-03T07:53:08.467Z,208.12
2022-08-03T07:54:08.478Z,202.50
2022-08-03T07:55:08.458Z,202.50
2022-08-03T07:56:11.219Z,202.50
2022-08-03T07:57:08.468Z,202.50
2022-08-03T07:58:08.444Z,202.50
2022-08-03T07:59:08.454Z,202.50
2022-08-03T08:00:08.425Z,202.50
2022-08-03T08:01:08.446Z,202.50
2022-08-03T08:02:08.436Z,202.50
2022-08-03T08:03:08.411Z,202.50
2022-08-03T08:04:08.401Z,202.50
2022-08-03T08:05:08.421Z,202.50
2022-08-03T08:06:08.390Z,202.50
2022-08-03T08:07:08.381Z,202.50
2022-08-03T08:08:08.382Z,202.50
2022-08-03T08:09:08.370Z,202.50
2022-08-03T08:10:08.387Z,202.50
2022-08-03T08:11:08.360Z,202.50
2022-08-03T08:12:14.906Z,196.88
2022-08-03T08:13:09.338Z,196.88
2022-08-03T08:14:08.335Z,196.88
2022-08-03T08:15:08.326Z,196.88
2022-08-03T08:16:08.349Z,196.88
2022-08-03T08:17:08.345Z,196.88
2022-08-03T08:18:08.301Z,196.88
2022-08-03T08:19:08.314Z,196.88
2022-08-03T08:20:08.285Z,196.88
2022-08-03T08:21:08.709Z,196.88
2022-08-03T08:22:08.274Z,196.88
2022-08-03T08:23:19.989Z,196.88
2022-08-03T08:24:11.441Z,196.88
2022-08-03T08:25:09.250Z,202.50
2022-08-03T08:26:08.237Z,196.88
2022-08-03T08:27:08.247Z,196.88
2022-08-03T08:28:30.890Z,196.88
2022-08-03T08:29:09.246Z,196.88
2022-08-03T08:30:11.548Z,196.88
2022-08-03T08:31:08.244Z,196.88
2022-08-03T08:32:08.237Z,196.88
2022-08-03T08:33:08.726Z,196.88
2022-08-03T08:34:09.248Z,191.25
2022-08-03T08:35:08.203Z,191.25
2022-08-03T08:36:11.988Z,191.25
2022-08-03T08:37:09.186Z,191.25
2022-08-03T08:38:08.170Z,191.25
2022-08-03T08:39:08.167Z,191.25
2022-08-03T08:40:08.158Z,191.25
2022-08-03T08:41:08.137Z,191.25
2022-08-03T08:42:08.165Z,191.25
2022-08-03T08:43:08.143Z,191.25
2022-08-03T08:44:08.140Z,191.25
2022-08-03T08:45:08.117Z,191.25
2022-08-03T08:46:08.129Z,191.25
2022-08-03T08:47:08.107Z,191.25
2022-08-03T08:48:08.550Z,191.25
2022-08-03T08:49:08.132Z,191.25
2022-08-03T08:50:14.850Z,191.25
2022-08-03T08:51:09.077Z,191.25
2022-08-03T08:52:25.356Z,191.25
2022-08-03T08:53:09.811Z,191.25
2022-08-03T08:54:09.071Z,191.25
2022-08-03T08:55:08.049Z,185.62
2022-08-03T08:56:08.075Z,185.62
2022-08-03T08:57:21.258Z,185.62
2022-08-03T08:58:09.028Z,185.62
2022-08-03T08:59:08.029Z,185.62
2022-08-03T09:00:08.022Z,185.62
2022-08-03T09:01:08.087Z,185.62
2022-08-03T09:02:08.007Z,185.62
2022-08-03T09:03:08.003Z,180.00
2022-08-03T09:04:08.000Z,180.00
2022-08-03T09:05:08.010Z,180.00
2022-08-03T09:06:07.999Z,180.00
2022-08-03T09:07:19.661Z,180.00
2022-08-03T09:08:08.954Z,180.00
2022-08-03T09:09:07.996Z,180.00
2022-08-03T09:10:12.712Z,180.00
2022-08-03T09:11:08.948Z,180.00
2022-08-03T09:12:35.290Z,180.00
2022-08-03T09:13:08.936Z,180.00
2022-08-03T09:14:07.935Z,180.00
2022-08-03T09:15:17.033Z,180.00
2022-08-03T09:16:08.916Z,180.00
2022-08-03T09:17:07.901Z,180.00
2022-08-03T09:18:07.895Z,180.00
2022-08-03T09:19:07.892Z,180.00
2022-08-03T09:20:07.889Z,180.00
2022-08-03T09:21:29.652Z,174.38
2022-08-03T09:22:08.907Z,174.38
2022-08-03T09:23:24.939Z,174.38
2022-08-03T09:24:16.519Z,174.38
2022-08-03T09:25:23.780Z,174.38
2022-08-03T09:26:09.155Z,174.38
2022-08-03T09:27:07.853Z,174.38
2022-08-03T09:28:07.842Z,174.38
2022-08-03T09:29:13.153Z,174.38
2022-08-03T09:30:19.000Z,174.38
2022-08-03T09:31:07.822Z,174.38
2022-08-03T09:32:07.844Z,174.38
2022-08-03T09:33:08.373Z,174.38
2022-08-03T09:34:07.793Z,174.38
2022-08-03T09:35:09.481Z,174.38
2022-08-03T09:36:07.776Z,174.38
2022-08-03T09:37:07.775Z,174.38
2022-08-03T09:38:12.637Z,168.75
2022-08-03T09:39:08.763Z,168.75
2022-08-03T09:40:08.384Z,168.75
2022-08-03T09:41:07.765Z,168.75
2022-08-03T09:42:07.743Z,168.75
2022-08-03T09:43:07.745Z,168.75
2022-08-03T09:44:07.724Z,168.75
2022-08-03T09:45:07.754Z,174.38
2022-08-03T09:46:07.791Z,168.75
2022-08-03T09:47:07.720Z,168.75
2022-08-03T09:48:07.709Z,168.75
2022-08-03T09:49:07.763Z,168.75
2022-08-03T09:50:07.690Z,168.75
2022-08-03T09:51:14.207Z,168.75
2022-08-03T09:52:31.765Z,168.75
2022-08-03T09:53:08.681Z,168.75
2022-08-03T09:54:13.534Z,168.75
2022-08-03T09:55:23.394Z,168.75
2022-08-03T09:56:36.006Z,168.75
2022-08-03T09:57:08.662Z,163.12
2022-08-03T09:58:07.642Z,163.12
2022-08-03T09:59:07.667Z,163.12
2022-08-03T10:00:08.468Z,163.12
2022-08-03T10:01:07.687Z,163.12
2022-08-03T10:02:08.636Z,163.12
2022-08-03T10:03:07.617Z,163.12
2022-08-03T10:04:07.598Z,163.12
2022-08-03T10:05:07.607Z,163.12
2022-08-03T10:06:07.598Z,163.12
2022-08-03T10:07:07.596Z,163.12
2022-08-03T10:08:07.613Z,163.12
2022-08-03T10:09:07.565Z,163.12
2022-08-03T10:10:29.925Z,163.12
2022-08-03T10:11:07.555Z,163.12
2022-08-03T10:12:07.544Z,163.12
2022-08-03T10:13:07.545Z,163.12
2022-08-03T10:14:07.551Z,157.50
2022-08-03T10:15:07.537Z,157.50
2022-08-03T10:16:21.971Z,157.50
2022-08-03T10:17:08.520Z,163.12
2022-08-03T10:18:07.503Z,157.50
2022-08-03T10:19:07.528Z,157.50
2022-08-03T10:20:07.490Z,157.50
2022-08-03T10:21:07.520Z,157.50
2022-08-03T10:22:07.486Z,157.50
2022-08-03T10:23:07.472Z,157.50
2022-08-03T10:24:07.456Z,157.50
2022-08-03T10:25:07.497Z,157.50
2022-08-03T10:26:07.447Z,157.50
2022-08-03T10:27:07.486Z,157.50
2022-08-03T10:28:07.435Z,157.50
2022-08-03T10:29:07.441Z,151.88
2022-08-03T10:30:07.432Z,151.88
2022-08-03T10:31:07.457Z,151.88
2022-08-03T10:32:07.416Z,151.88
2022-08-03T10:33:15.308Z,151.88
2022-08-03T10:34:08.431Z,151.88
2022-08-03T10:35:19.114Z,151.88
2022-08-03T10:36:08.433Z,151.88
2022-08-03T10:37:07.405Z,151.88
2022-08-03T10:38:07.402Z,151.88
2022-08-03T10:39:16.110Z,151.88
2022-08-03T10:40:07.368Z,151.88
2022-08-03T10:41:07.351Z,151.88
2022-08-03T10:42:13.506Z,146.25
2022-08-03T10:43:07.369Z,146.25
2022-08-03T10:44:07.332Z,146.25
2022-08-03T10:45:07.326Z,146.25
2022-08-03T10:46:07.322Z,146.25
2022-08-03T10:47:07.333Z,146.25
2022-08-03T10:48:07.307Z,146.25
2022-08-03T10:49:07.390Z,140.62
2022-08-03T10:50:07.287Z,146.25
2022-08-03T10:51:07.283Z,146.25
2022-08-03T10:52:13.382Z,146.25
2022-08-03T10:53:07.272Z,146.25
2022-08-03T10:54:07.274Z,146.25
2022-08-03T10:55:07.824Z,146.25
2022-08-03T10:56:07.243Z,146.25
2022-08-03T10:57:14.490Z,140.62
2022-08-03T10:58:11.258Z,140.62
2022-08-03T10:59:08.768Z,140.62
2022-08-03T11:00:07.447Z,140.62
2022-08-03T11:01:07.269Z,140.62
2022-08-03T11:02:07.235Z,140.62
2022-08-03T11:03:07.270Z,140.62
2022-08-03T11:04:11.046Z,140.62
2022-08-03T11:05:07.197Z,135.00
2022-08-03T11:06:07.195Z,140.62
2022-08-03T11:07:07.190Z,140.62
2022-08-03T11:08:07.182Z,140.62
2022-08-03T11:09:07.185Z,140.62
2022-08-03T11:10:10.497Z,140.62
2022-08-03T11:11:07.193Z,140.62
2022-08-03T11:12:07.149Z,140.62
2022-08-03T11:13:07.177Z,140.62
2022-08-03T11:14:07.139Z,140.62
2022-08-03T11:15:07.284Z,140.62
2022-08-03T11:16:10.915Z,135.00
2022-08-03T11:17:07.131Z,135.00
2022-08-03T11:18:11.536Z,135.00
2022-08-03T11:19:07.129Z,135.00
2022-08-03T11:20:07.097Z,135.00
2022-08-03T11:21:07.101Z,129.38
2022-08-03T11:22:07.083Z,129.38
2022-08-03T11:23:07.081Z,135.00
2022-08-03T11:24:07.249Z,135.00
2022-08-03T11:25:07.093Z,135.00
2022-08-03T11:26:07.086Z,135.00
2022-08-03T11:27:07.051Z,135.00
2022-08-03T11:28:07.069Z,135.00
2022-08-03T11:29:07.037Z,135.00
2022-08-03T11:30:07.020Z,135.00
2022-08-03T11:31:07.019Z,135.00
2022-08-03T11:32:07.042Z,135.00
2022-08-03T11:33:07.014Z,135.00
2022-08-03T11:34:07.006Z,135.00
2022-08-03T11:35:07.013Z,135.00
2022-08-03T11:36:06.989Z,135.00
2022-08-03T11:37:06.988Z,135.00
2022-08-03T11:38:06.986Z,135.00
2022-08-03T11:39:06.969Z,140.62
2022-08-03T11:40:06.962Z,140.62
2022-08-03T11:41:06.960Z,135.00
2022-08-03T11:42:06.977Z,129.38
2022-08-03T11:43:06.948Z,129.38
2022-08-03T11:44:06.948Z,106.88
2022-08-03T11:45:06.941Z,101.25
2022-08-03T11:46:06.931Z,106.88
2022-08-03T11:47:06.914Z,95.62
2022-08-03T11:48:06.934Z,95.62
2022-08-03T11:49:10.287Z,101.25
2022-08-03T11:50:06.893Z,101.25
2022-08-03T11:51:06.891Z,106.88
2022-08-03T11:52:06.884Z,101.25
2022-08-03T11:53:06.896Z,101.25
2022-08-03T11:54:06.865Z,95.62
2022-08-03T11:55:06.875Z,101.25
2022-08-03T11:56:12.868Z,106.88
2022-08-03T11:57:07.861Z,112.50
2022-08-03T11:59:00.775Z,106.88
2022-08-03T11:59:20.423Z,123.75
2022-08-03T12:00:07.918Z,118.12
2022-08-03T12:01:06.835Z,135.00
2022-08-03T12:02:06.808Z,140.62
2022-08-03T12:03:06.891Z,140.62
2022-08-03T12:04:06.800Z,135.00
2022-08-03T12:05:06.817Z,118.12
2022-08-03T12:06:06.785Z,140.62
2022-08-03T12:07:06.789Z,140.62
2022-08-03T12:08:07.196Z,140.62
2022-08-03T12:09:06.769Z,157.50
2022-08-03T12:10:06.754Z,157.50
2022-08-03T12:11:06.835Z,151.88
2022-08-03T12:12:06.749Z,146.25
2022-08-03T12:14:45.531Z,146.25
2022-08-03T12:14:50.112Z,146.25
2022-08-03T12:15:07.729Z,140.62
2022-08-03T12:16:06.731Z,146.25
2022-08-03T12:17:06.719Z,151.88
2022-08-03T12:18:06.705Z,151.88
2022-08-03T12:19:06.764Z,151.88
2022-08-03T12:20:06.726Z,151.88
2022-08-03T12:21:06.688Z,146.25
2022-08-03T12:22:06.671Z,146.25
2022-08-03T12:23:06.687Z,146.25
2022-08-03T12:24:06.657Z,146.25
2022-08-03T12:25:06.657Z,140.62
2022-08-03T12:26:06.659Z,129.38
2022-08-03T12:27:06.639Z,129.38
2022-08-03T12:28:06.635Z,112.50
2022-08-03T12:29:06.637Z,118.12
2022-08-03T12:30:06.692Z,135.00
2022-08-03T12:31:06.617Z,106.88
2022-08-03T12:32:06.617Z,129.38
2022-08-03T12:33:06.623Z,95.62
2022-08-03T12:34:06.607Z,123.75
2022-08-03T12:35:06.624Z,101.25
2022-08-03T12:36:06.589Z,123.75
2022-08-03T12:37:22.090Z,118.12
2022-08-03T12:38:07.566Z,118.12
2022-08-03T12:39:06.570Z,106.88
2022-08-03T12:40:10.641Z,118.12
2022-08-03T12:41:06.585Z,123.75
2022-08-03T12:42:06.547Z,118.12
2022-08-03T12:43:06.543Z,123.75